Time;durP1;ratioP1;P1;durP2;ratioP2;P2;SDS_P1;SDS_P2;PMS_P1;PMS_P2;Temp;Humidity;BMP_temperature;BMP_pressure;BME280_temperature;BME280_humidity;BME280_pressure;Samples;Min_cycle;Max_cycle;Signal;HPM_P1;HPM_P2
2021/09/04 00:02:04;;;;;;;10.02;5.18;;;16.20;60.90;;;;;;5143576;27;20401;-38
2021/09/04 00:04:30;;;;;;;8.30;4.85;;;16.20;60.80;;;;;;5143519;27;20061;-34
2021/09/04 00:06:56;;;;;;;10.32;4.65;;;16.20;60.90;;;;;;5143100;27;20394;-39
2021/09/04 00:09:21;;;;;;;8.07;4.90;;;16.20;60.80;;;;;;5143331;27;20036;-34
2021/09/04 00:11:47;;;;;;;7.00;4.28;;;16.20;60.80;;;;;;5143004;27;20031;-34
2021/09/04 00:14:13;;;;;;;6.63;4.50;;;16.20;60.90;;;;;;5143655;27;20035;-39
2021/09/04 00:16:38;;;;;;;12.50;5.18;;;16.20;60.90;;;;;;5143286;27;20050;-35
2021/09/04 00:19:04;;;;;;;7.75;4.55;;;16.20;61.00;;;;;;5143238;27;20399;-38
2021/09/04 00:21:30;;;;;;;10.55;5.00;;;16.20;60.90;;;;;;5143016;27;20027;-38
2021/09/04 00:23:55;;;;;;;6.95;4.50;;;16.20;61.00;;;;;;5143211;27;20068;-40
2021/09/04 00:26:24;;;;;;;8.30;4.55;;;16.20;61.00;;;;;;5142910;27;20023;-35
2021/09/04 00:28:50;;;;;;;9.93;4.97;;;16.30;61.00;;;;;;5143421;27;20043;-35
2021/09/04 00:31:15;;;;;;;7.22;4.63;;;16.30;60.90;;;;;;5142986;27;20034;-38
2021/09/04 00:33:41;;;;;;;7.32;4.68;;;16.30;60.90;;;;;;5143447;27;20027;-39
2021/09/04 00:36:06;;;;;;;9.82;4.82;;;16.30;60.90;;;;;;5143219;27;20019;-38
2021/09/04 00:38:32;;;;;;;7.78;4.82;;;16.40;60.90;;;;;;5143430;27;20119;-38
2021/09/04 00:40:58;;;;;;;7.53;4.97;;;16.40;60.90;;;;;;5143031;27;20441;-35
2021/09/04 00:43:24;;;;;;;7.78;4.50;;;16.40;60.80;;;;;;5143471;27;20027;-35
2021/09/04 00:45:50;;;;;;;10.18;4.78;;;16.40;60.90;;;;;;5142995;27;20099;-35
2021/09/04 00:48:15;;;;;;;8.93;4.30;;;16.40;60.90;;;;;;5143214;27;20027;-40
2021/09/04 00:50:41;;;;;;;9.43;4.72;;;16.50;60.90;;;;;;5142660;27;20060;-38
2021/09/04 00:53:07;;;;;;;8.10;4.80;;;16.50;60.70;;;;;;5143234;27;20038;-35
2021/09/04 00:55:33;;;;;;;7.97;4.50;;;16.50;60.80;;;;;;5142667;27;20114;-35
2021/09/04 00:57:59;;;;;;;9.32;4.38;;;16.50;60.80;;;;;;5143035;27;20090;-38
2021/09/04 01:00:26;;;;;;;7.32;4.07;;;16.50;60.70;;;;;;5143098;27;20411;-35
2021/09/04 01:02:51;;;;;;;7.15;4.65;;;16.50;60.90;;;;;;5139409;27;20418;-34
2021/09/04 01:05:17;;;;;;;8.05;4.65;;;16.50;60.80;;;;;;5139823;27;20034;-38
2021/09/04 01:07:43;;;;;;;8.32;4.47;;;16.50;60.90;;;;;;5139520;27;20080;-38
2021/09/04 01:10:11;;;;;;;9.55;4.47;;;16.50;60.90;;;;;;5139867;27;20440;-38
2021/09/04 01:12:38;;;;;;;6.82;4.57;;;16.50;61.10;;;;;;5139447;27;20031;-38
2021/09/04 01:15:06;;;;;;;9.60;4.90;;;16.50;61.10;;;;;;5139465;27;20019;-38
2021/09/04 01:17:32;;;;;;;8.70;4.60;;;16.50;61.10;;;;;;5139440;27;20117;-35
2021/09/04 01:19:58;;;;;;;8.68;5.10;;;16.50;61.10;;;;;;5139360;27;20034;-34
2021/09/04 01:22:24;;;;;;;8.88;5.13;;;16.50;61.20;;;;;;5139178;27;20303;-34
2021/09/04 01:24:50;;;;;;;10.98;5.10;;;16.50;61.20;;;;;;5139449;27;20023;-35
2021/09/04 01:27:18;;;;;;;7.47;4.55;;;16.50;61.30;;;;;;5139088;27;20023;-34
2021/09/04 01:29:44;;;;;;;7.70;4.57;;;16.50;61.70;;;;;;5139039;27;20031;-38
2021/09/04 01:32:10;;;;;;;8.18;4.80;;;16.50;61.30;;;;;;5139294;27;20031;-35
2021/09/04 01:34:36;;;;;;;5.85;3.97;;;16.40;61.30;;;;;;5139300;27;20027;-35
2021/09/04 01:37:02;;;;;;;6.97;4.28;;;16.40;61.40;;;;;;5139126;27;20019;-35
2021/09/04 01:39:28;;;;;;;7.22;4.63;;;16.40;61.50;;;;;;5139091;27;20445;-35
2021/09/04 01:41:54;;;;;;;9.13;5.15;;;16.40;61.50;;;;;;5138884;27;20023;-35
2021/09/04 01:44:19;;;;;;;7.47;3.92;;;16.40;61.60;;;;;;5139037;27;20372;-38
2021/09/04 01:46:45;;;;;;;7.30;4.30;;;16.30;61.60;;;;;;5138839;27;20083;-38
2021/09/04 01:49:11;;;;;;;7.25;4.43;;;16.30;61.70;;;;;;5138589;27;20043;-38
2021/09/04 01:51:36;;;;;;;10.07;4.93;;;16.30;61.80;;;;;;5138517;27;20019;-39
2021/09/04 01:54:02;;;;;;;8.07;4.80;;;16.30;61.80;;;;;;5138633;27;20364;-35
2021/09/04 01:56:28;;;;;;;6.07;4.43;;;16.20;62.00;;;;;;5138662;27;20424;-34
2021/09/04 01:58:53;;;;;;;8.02;4.97;;;16.20;62.20;;;;;;5138977;27;20287;-35
2021/09/04 02:01:19;;;;;;;8.65;5.03;;;16.20;62.20;;;;;;5138699;27;20402;-35
2021/09/04 02:03:45;;;;;;;7.20;4.50;;;16.10;62.30;;;;;;5138924;27;20024;-35
2021/09/04 02:06:11;;;;;;;8.40;4.68;;;16.10;62.40;;;;;;5138510;27;20280;-39
2021/09/04 02:08:36;;;;;;;7.40;5.10;;;16.10;62.50;;;;;;5138901;27;20027;-35
2021/09/04 02:11:02;;;;;;;9.23;4.68;;;16.10;62.70;;;;;;5138592;27;20109;-38
2021/09/04 02:13:28;;;;;;;8.38;4.32;;;16.10;62.70;;;;;;5137320;27;20178;-39
2021/09/04 02:15:55;;;;;;;7.97;5.03;;;16.10;62.80;;;;;;5138217;27;20132;-36
2021/09/04 02:18:21;;;;;;;15.07;5.70;;;16.00;62.80;;;;;;5138446;27;20322;-38
2021/09/04 02:20:48;;;;;;;6.75;4.50;;;16.00;62.80;;;;;;5138235;27;20110;-40
2021/09/04 02:23:14;;;;;;;8.82;5.20;;;16.00;62.90;;;;;;5138546;27;20402;-35
2021/09/04 02:25:40;;;;;;;7.45;4.75;;;16.00;63.00;;;;;;5138142;27;20457;-35
2021/09/04 02:28:07;;;;;;;8.00;4.90;;;16.00;63.00;;;;;;5138317;27;20098;-39
2021/09/04 02:30:33;;;;;;;8.48;4.85;;;16.00;63.00;;;;;;5137901;27;20084;-35
2021/09/04 02:32:58;;;;;;;8.93;5.88;;;16.00;63.10;;;;;;5138243;27;20403;-38
2021/09/04 02:35:25;;;;;;;10.60;5.70;;;16.00;63.20;;;;;;5137692;27;20051;-38
2021/09/04 02:37:50;;;;;;;8.82;5.03;;;16.00;63.20;;;;;;5138143;27;20464;-38
2021/09/04 02:40:17;;;;;;;10.10;5.28;;;16.00;63.40;;;;;;5138122;27;20116;-35
2021/09/04 02:42:42;;;;;;;11.55;5.72;;;16.00;63.40;;;;;;5137914;27;20039;-34
2021/09/04 02:45:10;;;;;;;12.32;5.15;;;16.00;63.50;;;;;;5137717;27;20024;-38
2021/09/04 02:47:36;;;;;;;8.60;4.95;;;15.90;63.50;;;;;;5137300;27;20051;-38
2021/09/04 02:50:04;;;;;;;8.63;4.90;;;15.90;63.60;;;;;;5138000;27;20307;-39
2021/09/04 02:52:29;;;;;;;11.45;5.53;;;15.90;63.80;;;;;;5119099;27;20027;-35
2021/09/04 02:54:55;;;;;;;10.95;5.50;;;15.80;63.90;;;;;;5137405;27;20104;-35
2021/09/04 02:57:21;;;;;;;9.85;5.72;;;15.80;64.10;;;;;;5137576;27;20030;-38
2021/09/04 02:59:47;;;;;;;6.97;4.90;;;15.80;64.10;;;;;;5137658;27;20027;-35
2021/09/04 03:02:14;;;;;;;9.05;5.68;;;15.80;64.20;;;;;;5119184;27;20426;-35
2021/09/04 03:04:40;;;;;;;8.93;5.50;;;15.80;64.20;;;;;;5137166;27;20031;-34
2021/09/04 03:07:06;;;;;;;9.85;5.78;;;15.80;64.20;;;;;;5137144;27;20031;-34
2021/09/04 03:09:31;;;;;;;7.47;5.10;;;15.80;64.30;;;;;;5136941;27;20436;-40
2021/09/04 03:11:57;;;;;;;7.90;5.18;;;15.80;64.30;;;;;;5137150;27;20030;-39
2021/09/04 03:14:23;;;;;;;10.18;5.47;;;15.80;64.50;;;;;;5137300;27;20028;-38
2021/09/04 03:16:48;;;;;;;9.48;5.65;;;15.80;64.60;;;;;;5136919;27;20031;-35
2021/09/04 03:19:14;;;;;;;13.18;5.50;;;15.80;64.60;;;;;;5136994;27;20031;-34
2021/09/04 03:21:39;;;;;;;8.38;5.13;;;15.80;64.80;;;;;;5136813;27;20025;-35
2021/09/04 03:24:05;;;;;;;10.48;5.35;;;15.80;64.70;;;;;;5137000;27;20076;-38
2021/09/04 03:26:31;;;;;;;11.00;5.53;;;15.80;64.70;;;;;;5136299;27;20031;-35
2021/09/04 03:28:56;;;;;;;8.52;5.63;;;15.80;64.80;;;;;;5136799;27;20049;-35
2021/09/04 03:31:22;;;;;;;12.07;6.65;;;15.80;64.90;;;;;;5136711;27;20023;-39
2021/09/04 03:33:47;;;;;;;11.02;5.20;;;15.80;65.00;;;;;;5137377;27;20039;-39
2021/09/04 03:36:13;;;;;;;10.02;5.78;;;15.80;65.00;;;;;;5136676;27;20102;-38
2021/09/04 03:38:39;;;;;;;14.63;5.45;;;15.80;65.20;;;;;;5137276;27;20037;-35
2021/09/04 03:41:04;;;;;;;9.10;5.03;;;15.80;65.10;;;;;;5136715;27;20074;-39
2021/09/04 03:43:30;;;;;;;14.75;6.10;;;15.90;65.30;;;;;;5137037;28;20066;-38
2021/09/04 03:45:56;;;;;;;10.60;5.93;;;15.90;65.40;;;;;;5136652;27;20034;-35
2021/09/04 03:48:21;;;;;;;8.98;5.57;;;15.90;65.30;;;;;;5136323;27;20028;-39
2021/09/04 03:50:47;;;;;;;10.63;5.70;;;15.90;65.50;;;;;;5136815;28;20068;-40
2021/09/04 03:53:12;;;;;;;9.07;5.65;;;15.90;65.50;;;;;;5136442;28;20043;-38
2021/09/04 03:55:38;;;;;;;9.60;6.22;;;15.90;65.50;;;;;;5136366;28;20025;-35
2021/09/04 03:58:04;;;;;;;10.30;5.75;;;15.90;65.30;;;;;;5136864;28;20119;-34
2021/09/04 04:00:29;;;;;;;8.02;5.68;;;15.90;65.30;;;;;;5136283;28;20030;-39
2021/09/04 04:02:55;;;;;;;9.77;5.82;;;15.90;65.30;;;;;;5136866;28;20035;-35
2021/09/04 04:05:21;;;;;;;8.80;5.47;;;15.90;65.40;;;;;;5136850;28;20399;-35
2021/09/04 04:07:46;;;;;;;11.32;6.97;;;15.90;65.50;;;;;;5136517;28;20031;-39
2021/09/04 04:10:12;;;;;;;10.32;6.25;;;15.90;65.60;;;;;;5137077;28;20030;-38
2021/09/04 04:12:37;;;;;;;9.60;5.55;;;15.90;65.70;;;;;;5136449;28;20352;-35
2021/09/04 04:15:04;;;;;;;9.75;5.32;;;15.90;65.70;;;;;;5136729;28;20049;-35
2021/09/04 04:17:30;;;;;;;9.68;6.07;;;15.90;66.00;;;;;;5136390;28;20019;-38
2021/09/04 04:19:56;;;;;;;8.10;5.35;;;15.90;65.90;;;;;;5136690;28;20361;-39
2021/09/04 04:22:21;;;;;;;8.80;5.63;;;15.90;65.80;;;;;;5136433;28;20027;-35
2021/09/04 04:24:47;;;;;;;9.90;6.13;;;15.90;65.80;;;;;;5136185;28;20123;-35
2021/09/04 04:27:13;;;;;;;12.55;6.13;;;15.90;65.80;;;;;;5136094;28;20055;-36
2021/09/04 04:29:38;;;;;;;10.55;6.20;;;15.90;65.80;;;;;;5136032;28;20063;-39
2021/09/04 04:32:04;;;;;;;8.38;5.13;;;15.90;65.90;;;;;;5136169;28;20076;-39
2021/09/04 04:34:30;;;;;;;11.05;6.00;;;15.90;65.80;;;;;;5135891;28;20071;-35
2021/09/04 04:36:56;;;;;;;9.07;5.68;;;15.90;66.00;;;;;;5137000;27;20034;-34
2021/09/04 04:39:21;;;;;;;10.70;6.28;;;15.90;66.00;;;;;;5140002;27;20031;-34
2021/09/04 04:41:47;;;;;;;13.02;5.50;;;15.90;66.20;;;;;;5139915;27;20422;-39
2021/09/04 04:44:13;;;;;;;10.68;5.50;;;15.90;66.30;;;;;;5139866;27;20027;-35
2021/09/04 04:46:38;;;;;;;12.25;6.25;;;15.90;66.40;;;;;;5139623;27;20023;-35
2021/09/04 04:49:04;;;;;;;8.30;5.65;;;16.00;66.40;;;;;;5139766;27;20168;-40
2021/09/04 04:51:29;;;;;;;11.27;5.93;;;16.00;66.40;;;;;;5139381;27;20096;-40
2021/09/04 04:53:55;;;;;;;10.60;5.60;;;16.10;66.60;;;;;;5139438;27;20047;-40
2021/09/04 04:56:20;;;;;;;17.65;6.13;;;16.10;66.60;;;;;;5139432;27;20023;-39
2021/09/04 04:58:46;;;;;;;10.88;5.68;;;16.20;66.50;;;;;;5139643;27;20065;-35
2021/09/04 05:01:12;;;;;;;11.13;6.50;;;16.20;66.40;;;;;;5139548;27;20065;-36
2021/09/04 05:03:37;;;;;;;10.63;5.95;;;16.30;66.30;;;;;;5139873;27;20435;-33
2021/09/04 05:06:04;;;;;;;18.35;6.47;;;16.30;66.00;;;;;;5139595;27;20107;-37
2021/09/04 05:08:29;;;;;;;8.77;5.35;;;16.30;66.20;;;;;;5139311;27;20114;-34
2021/09/04 05:10:55;;;;;;;9.18;6.18;;;16.40;66.20;;;;;;5139136;27;20102;-34
2021/09/04 05:13:21;;;;;;;10.27;6.07;;;16.40;66.10;;;;;;5139523;27;20053;-34
2021/09/04 05:15:48;;;;;;;9.80;5.60;;;16.40;66.00;;;;;;5139102;27;20062;-34
2021/09/04 05:18:14;;;;;;;10.38;6.25;;;16.50;66.00;;;;;;5139329;27;20031;-34
2021/09/04 05:20:43;;;;;;;14.50;6.68;;;16.50;66.10;;;;;;5138863;27;20076;-34
2021/09/04 05:23:09;;;;;;;15.65;6.05;;;16.50;66.00;;;;;;5139412;27;20031;-38
2021/09/04 05:25:34;;;;;;;8.75;5.72;;;16.50;66.10;;;;;;5120534;27;20118;-39
2021/09/04 05:28:00;;;;;;;11.85;6.15;;;16.60;66.10;;;;;;5139251;27;20118;-34
2021/09/04 05:30:26;;;;;;;11.55;6.57;;;16.60;66.00;;;;;;5138625;27;20515;-38
2021/09/04 05:32:51;;;;;;;8.45;5.95;;;16.60;66.10;;;;;;5138898;27;20042;-38
2021/09/04 05:35:17;;;;;;;8.48;5.75;;;16.60;66.10;;;;;;5138714;27;20024;-34
2021/09/04 05:37:43;;;;;;;7.72;5.70;;;16.70;66.40;;;;;;5139068;27;20035;-34
2021/09/04 05:40:09;;;;;;;9.20;5.75;;;16.70;66.70;;;;;;5138729;27;20023;-33
2021/09/04 05:42:35;;;;;;;11.38;6.95;;;16.80;66.40;;;;;;5138555;27;20117;-38
2021/09/04 05:45:00;;;;;;;8.50;5.93;;;16.80;66.40;;;;;;5138732;27;20110;-34
2021/09/04 05:47:26;;;;;;;8.50;4.88;;;17.00;66.40;;;;;;5137806;27;20451;-33
2021/09/04 05:49:52;;;;;;;9.27;6.05;;;17.00;66.20;;;;;;5138607;27;20117;-38
2021/09/04 05:52:18;;;;;;;12.00;6.85;;;17.10;66.40;;;;;;5138389;27;20030;-34
2021/09/04 05:54:43;;;;;;;10.35;5.88;;;17.10;66.30;;;;;;5137847;27;20043;-38
2021/09/04 05:57:09;;;;;;;9.95;6.25;;;17.20;66.20;;;;;;5138316;27;20032;-34
2021/09/04 05:59:34;;;;;;;11.43;6.63;;;17.30;66.20;;;;;;5137915;27;20109;-34
2021/09/04 06:02:00;;;;;;;9.05;6.53;;;17.30;65.90;;;;;;5138247;27;20118;-39
2021/09/04 06:04:26;;;;;;;9.48;6.78;;;17.40;66.10;;;;;;5137947;27;20053;-38
2021/09/04 06:06:51;;;;;;;10.10;6.68;;;17.50;66.20;;;;;;5137972;27;20031;-34
2021/09/04 06:09:17;;;;;;;10.77;6.40;;;17.50;65.90;;;;;;5138242;27;20035;-34
2021/09/04 06:11:43;;;;;;;12.35;6.57;;;17.60;65.70;;;;;;5138076;27;20052;-39
2021/09/04 06:14:09;;;;;;;8.45;5.72;;;17.70;65.60;;;;;;5138134;27;20425;-34
2021/09/04 06:16:35;;;;;;;10.15;5.90;;;17.70;65.60;;;;;;5137744;27;20457;-34
2021/09/04 06:19:00;;;;;;;12.18;6.63;;;17.80;65.50;;;;;;5137493;27;20039;-34
2021/09/04 06:21:26;;;;;;;8.70;6.13;;;17.80;65.30;;;;;;5137691;27;20029;-35
2021/09/04 06:23:52;;;;;;;10.85;6.55;;;17.80;65.40;;;;;;5137889;27;20031;-38
2021/09/04 06:26:17;;;;;;;10.10;6.78;;;17.90;65.60;;;;;;5137845;27;20311;-37
2021/09/04 06:28:43;;;;;;;11.15;6.55;;;17.90;65.50;;;;;;5138042;27;20348;-34
2021/09/04 06:31:09;;;;;;;12.57;6.85;;;18.00;65.50;;;;;;5137538;27;20027;-34
2021/09/04 06:33:34;;;;;;;10.82;6.47;;;18.00;65.20;;;;;;5119420;27;20023;-33
2021/09/04 06:36:00;;;;;;;10.10;5.80;;;18.10;65.30;;;;;;5137429;27;20030;-39
2021/09/04 06:38:25;;;;;;;11.70;8.20;;;18.10;65.30;;;;;;5137926;27;20403;-34
2021/09/04 06:40:51;;;;;;;9.77;6.50;;;18.10;65.40;;;;;;5137416;27;20031;-38
2021/09/04 06:43:17;;;;;;;9.77;6.47;;;18.20;65.60;;;;;;5137648;27;20303;-34
2021/09/04 06:45:42;;;;;;;9.77;5.88;;;18.20;65.50;;;;;;5137757;27;20316;-39
2021/09/04 06:48:08;;;;;;;11.75;6.13;;;18.30;65.40;;;;;;5136972;27;20027;-38
2021/09/04 06:50:34;;;;;;;9.57;6.53;;;18.30;65.70;;;;;;5136730;27;20057;-38
2021/09/04 06:53:01;;;;;;;11.15;5.88;;;18.30;65.60;;;;;;5137368;27;20122;-34
2021/09/04 06:55:28;;;;;;;12.07;6.18;;;18.30;65.50;;;;;;5137043;27;20031;-38
2021/09/04 06:57:54;;;;;;;8.95;7.03;;;18.30;65.40;;;;;;5137432;27;20407;-33
2021/09/04 07:00:20;;;;;;;8.40;5.85;;;18.30;65.40;;;;;;5136140;27;20034;-38
2021/09/04 07:02:46;;;;;;;7.70;5.38;;;18.40;65.40;;;;;;5137003;27;20319;-34
2021/09/04 07:05:12;;;;;;;8.00;5.78;;;18.40;65.50;;;;;;5136978;27;20032;-37
2021/09/04 07:07:37;;;;;;;6.53;4.78;;;18.40;65.60;;;;;;5136547;27;20027;-39
2021/09/04 07:10:04;;;;;;;7.57;4.97;;;18.40;65.30;;;;;;5136765;27;20027;-38
2021/09/04 07:12:29;;;;;;;9.65;6.93;;;18.50;64.80;;;;;;5136395;27;20029;-38
2021/09/04 07:14:55;;;;;;;7.55;4.90;;;18.50;64.80;;;;;;5136240;27;20031;-38
2021/09/04 07:17:21;;;;;;;10.02;5.53;;;18.50;64.70;;;;;;5135953;27;20042;-39
2021/09/04 07:19:47;;;;;;;7.63;4.60;;;18.50;64.60;;;;;;5137015;27;20027;-34
2021/09/04 07:22:13;;;;;;;9.07;4.10;;;18.50;64.40;;;;;;5131833;27;20023;-39
2021/09/04 07:24:38;;;;;;;4.70;3.88;;;18.40;64.30;;;;;;5136061;27;20456;-36
2021/09/04 07:27:04;;;;;;;7.13;5.03;;;18.40;64.40;;;;;;5136239;27;20031;-33
2021/09/04 07:29:30;;;;;;;5.07;4.13;;;18.50;64.20;;;;;;5136218;27;20059;-38
2021/09/04 07:31:55;;;;;;;5.35;3.58;;;18.50;64.20;;;;;;5136063;27;20023;-34
2021/09/04 07:34:21;;;;;;;7.47;3.80;;;18.50;64.00;;;;;;5136177;27;20031;-39
2021/09/04 07:36:47;;;;;;;6.93;4.47;;;18.60;64.00;;;;;;5135562;27;20027;-39
2021/09/04 07:39:12;;;;;;;4.90;3.60;;;18.70;63.70;;;;;;5136249;27;20070;-35
2021/09/04 07:41:38;;;;;;;7.68;4.07;;;18.70;63.50;;;;;;5135867;27;20097;-38
2021/09/04 07:44:04;;;;;;;5.88;3.92;;;18.80;63.20;;;;;;5136313;27;20083;-36
2021/09/04 07:46:30;;;;;;;5.10;3.72;;;18.90;63.20;;;;;;5135436;27;20027;-39
2021/09/04 07:48:55;;;;;;;4.18;3.30;;;18.90;63.00;;;;;;5135899;27;20041;-39
2021/09/04 07:51:21;;;;;;;6.88;4.10;;;18.90;63.20;;;;;;5135664;28;20421;-35
2021/09/04 07:53:47;;;;;;;4.78;3.10;;;19.00;62.90;;;;;;5136067;28;20389;-40
2021/09/04 07:56:12;;;;;;;4.35;3.45;;;19.00;62.50;;;;;;5135806;28;20073;-34
2021/09/04 07:58:38;;;;;;;3.92;2.70;;;19.10;62.20;;;;;;5135807;28;20406;-40
2021/09/04 08:01:04;;;;;;;3.35;2.80;;;19.10;62.00;;;;;;5135588;28;20031;-34
2021/09/04 08:03:30;;;;;;;6.90;4.75;;;19.20;61.50;;;;;;5136000;28;20438;-34
2021/09/04 08:05:55;;;;;;;4.93;3.20;;;19.20;61.40;;;;;;5136097;28;20058;-39
2021/09/04 08:08:21;;;;;;;3.03;2.55;;;19.30;61.10;;;;;;5135667;28;20027;-40
2021/09/04 08:10:47;;;;;;;7.10;5.47;;;19.30;60.30;;;;;;5136292;27;20023;-34
2021/09/04 08:13:14;;;;;;;8.07;4.78;;;19.30;60.00;;;;;;5140954;27;20034;-38
2021/09/04 08:15:39;;;;;;;4.22;3.03;;;19.30;59.70;;;;;;5139692;27;20102;-34
2021/09/04 08:18:05;;;;;;;6.28;5.18;;;19.30;59.30;;;;;;5140582;27;20107;-39
2021/09/04 08:20:31;;;;;;;4.90;3.20;;;19.30;59.70;;;;;;5139673;27;20035;-34
2021/09/04 08:22:57;;;;;;;4.60;2.53;;;19.30;59.40;;;;;;5139986;27;20411;-37
2021/09/04 08:25:23;;;;;;;3.92;3.10;;;19.30;58.70;;;;;;5139277;27;20047;-37
2021/09/04 08:27:48;;;;;;;5.13;2.17;;;19.40;58.60;;;;;;5140068;27;20031;-34
2021/09/04 08:30:14;;;;;;;6.38;2.22;;;19.40;58.40;;;;;;5140198;27;20129;-38
2021/09/04 08:32:41;;;;;;;4.35;2.65;;;19.50;58.30;;;;;;5140145;27;20327;-38
2021/09/04 08:35:07;;;;;;;2.47;2.10;;;19.50;57.60;;;;;;5140134;27;20296;-38
2021/09/04 08:37:32;;;;;;;5.90;2.42;;;19.60;57.00;;;;;;5139956;27;20095;-34
2021/09/04 08:39:58;;;;;;;3.10;2.20;;;19.60;56.60;;;;;;5140152;27;20027;-36
2021/09/04 08:42:24;;;;;;;4.43;3.30;;;19.60;56.70;;;;;;5139632;27;20031;-34
2021/09/04 08:44:50;;;;;;;8.30;3.95;;;19.60;56.50;;;;;;5139660;27;20322;-38
2021/09/04 08:47:19;;;;;;;5.22;2.58;;;19.60;56.30;;;;;;5139179;27;20035;-35
2021/09/04 08:49:47;;;;;;;6.93;2.53;;;19.60;56.40;;;;;;5138849;27;20042;-34
2021/09/04 08:52:13;;;;;;;8.63;6.35;;;19.60;55.80;;;;;;5139843;27;20034;-34
2021/09/04 08:54:39;;;;;;;3.97;2.47;;;19.60;55.80;;;;;;5139302;27;20130;-37
2021/09/04 08:57:05;;;;;;;6.15;4.35;;;19.50;55.80;;;;;;5139374;27;20072;-34
2021/09/04 08:59:31;;;;;;;5.13;3.55;;;19.50;55.90;;;;;;5139576;27;20031;-39
2021/09/04 09:01:57;;;;;;;3.38;2.40;;;19.50;56.20;;;;;;5139516;27;20323;-34
2021/09/04 09:04:23;;;;;;;4.85;3.22;;;19.50;55.80;;;;;;5139650;27;20035;-37
2021/09/04 09:06:50;;;;;;;7.35;3.38;;;19.60;56.10;;;;;;5139108;27;20031;-34
2021/09/04 09:09:21;;;;;;;5.38;2.20;;;19.70;55.80;;;;;;5139286;27;20140;-38
2021/09/04 09:11:52;;;;;;;2.35;1.83;;;19.70;55.20;;;;;;5139394;27;20060;-35
2021/09/04 09:14:18;;;;;;;3.65;1.90;;;19.70;54.60;;;;;;5139611;27;20038;-38
2021/09/04 09:17:02;;;;;;;2.67;1.90;;;19.70;54.30;;;;;;5139035;27;20034;-38
2021/09/04 09:19:39;;;;;;;13.75;4.97;;;19.70;54.10;;;;;;5139402;27;20031;-35
2021/09/04 09:22:15;;;;;;;4.47;2.67;;;19.70;54.80;;;;;;5139147;27;20042;-38
2021/09/04 09:24:41;;;;;;;4.15;2.00;;;19.70;54.30;;;;;;5138850;27;20042;-37
2021/09/04 09:27:07;;;;;;;3.70;2.25;;;19.70;54.10;;;;;;5138935;27;20031;-39
2021/09/04 09:29:35;;;;;;;5.05;2.60;;;19.70;54.50;;;;;;5138629;27;20111;-40
2021/09/04 09:32:06;;;;;;;1.70;1.60;;;19.70;54.50;;;;;;5138732;27;20030;-34
2021/09/04 09:34:39;;;;;;;3.28;1.90;;;19.80;54.20;;;;;;5138825;27;20035;-38
2021/09/04 09:37:06;;;;;;;3.00;2.40;;;19.80;54.60;;;;;;5138993;27;20032;-34
2021/09/04 09:39:37;;;;;;;4.22;2.28;;;19.80;54.50;;;;;;5138895;27;20030;-38
2021/09/04 09:42:03;;;;;;;;;;;19.90;53.90;;;;;;5139431;27;20031;-37
2021/09/04 09:44:31;;;;;;;2.08;1.75;;;19.90;54.20;;;;;;5138618;27;19991;-37
2021/09/04 09:47:02;;;;;;;3.17;2.47;;;19.90;54.00;;;;;;5138457;27;20391;-37
2021/09/04 09:49:30;;;;;;;3.15;2.00;;;20.00;53.70;;;;;;5138610;27;20114;-34
2021/09/04 09:52:02;;;;;;;5.10;2.38;;;20.00;53.20;;;;;;5138591;27;20026;-34
2021/09/04 09:54:31;;;;;;;2.97;2.28;;;20.10;52.10;;;;;;5138209;27;20050;-35
2021/09/04 09:57:01;;;;;;;4.03;2.88;;;20.20;52.40;;;;;;5138477;27;20031;-39
2021/09/04 09:59:28;;;;;;;5.85;3.40;;;20.30;52.20;;;;;;5138442;27;20031;-35
2021/09/04 10:01:59;;;;;;;4.38;2.58;;;20.40;51.90;;;;;;5138517;27;20055;-35
2021/09/04 10:04:31;;;;;;;3.08;2.35;;;20.40;51.90;;;;;;5138244;27;20349;-40
2021/09/04 10:06:56;;;;;;;3.05;2.40;;;20.50;52.30;;;;;;5138290;27;20101;-39
2021/09/04 10:09:26;;;;;;;8.90;3.60;;;20.50;51.40;;;;;;5137784;27;20114;-38
2021/09/04 10:11:52;;;;;;;7.93;3.67;;;20.60;51.50;;;;;;5138248;27;20106;-39
2021/09/04 10:14:19;;;;;;;2.72;2.42;;;20.60;51.10;;;;;;5138423;27;20051;-34
2021/09/04 10:16:46;;;;;;;3.00;2.17;;;20.70;51.40;;;;;;5137974;27;20029;-34
2021/09/04 10:19:16;;;;;;;2.78;2.20;;;20.70;51.10;;;;;;5138274;27;20081;-39
2021/09/04 10:21:42;;;;;;;3.13;1.98;;;20.70;50.60;;;;;;5138422;27;20038;-34
2021/09/04 10:24:09;;;;;;;4.13;2.00;;;20.70;50.70;;;;;;5138011;27;20031;-35
2021/09/04 10:26:39;;;;;;;4.88;2.35;;;20.70;50.00;;;;;;5137795;27;20350;-39
2021/09/04 10:29:05;;;;;;;4.18;1.80;;;20.70;49.60;;;;;;5137487;27;20035;-35
2021/09/04 10:31:53;;;;;;;2.30;1.83;;;20.70;49.30;;;;;;5137158;27;20026;-39
2021/09/04 10:34:26;;;;;;;3.80;1.85;;;20.70;48.90;;;;;;5136544;27;20028;-35
2021/09/04 10:37:01;;;;;;;2.38;1.88;;;20.70;49.10;;;;;;5137230;27;20031;-35
2021/09/04 10:39:50;;;;;;;6.90;2.30;;;20.60;49.10;;;;;;5137493;27;20405;-35
2021/09/04 10:42:31;;;;;;;1.98;1.58;;;20.60;48.60;;;;;;5137285;27;20035;-35
2021/09/04 10:45:01;;;;;;;4.38;1.38;;;20.50;48.60;;;;;;5119115;27;20052;-39
2021/09/04 10:47:27;;;;;;;6.38;1.88;;;20.50;49.10;;;;;;5137054;27;20311;-39
2021/09/04 10:49:53;;;;;;;2.78;1.83;;;20.40;49.10;;;;;;5137298;27;20031;-38
2021/09/04 10:52:50;;;;;;;3.28;1.85;;;20.40;49.40;;;;;;5137346;27;20348;-34
2021/09/04 10:55:25;;;;;;;2.78;2.13;;;20.50;48.90;;;;;;5137224;27;20039;-38
2021/09/04 10:57:53;;;;;;;2.58;1.88;;;20.60;49.40;;;;;;5137418;27;20088;-35
2021/09/04 11:00:19;;;;;;;5.45;1.92;;;20.70;49.20;;;;;;5137097;27;20023;-39
2021/09/04 11:02:48;;;;;;;2.15;1.50;;;20.80;48.70;;;;;;5125290;27;20027;-39
2021/09/04 11:05:26;;;;;;;5.97;1.58;;;20.90;49.30;;;;;;5121543;27;20038;-35
2021/09/04 11:08:12;;;;;;;2.40;1.30;;;21.00;48.50;;;;;;5128682;27;20311;-37
2021/09/04 11:10:41;;;;;;;4.15;1.77;;;21.10;49.00;;;;;;5123608;27;20066;-37
2021/09/04 11:13:38;;;;;;;5.32;1.90;;;21.20;48.10;;;;;;5135015;27;20019;-38
2021/09/04 11:16:34;;;;;;;2.92;1.90;;;21.30;48.20;;;;;;5127044;27;20127;-38
2021/09/04 11:19:06;;;;;;;2.28;1.60;;;21.30;47.30;;;;;;5130060;27;20547;-34
2021/09/04 11:21:34;;;;;;;2.30;1.67;;;21.40;47.20;;;;;;5132739;27;20407;-35
2021/09/04 11:24:01;;;;;;;1.80;1.35;;;21.40;47.20;;;;;;5131683;27;20072;-33
2021/09/04 11:26:28;;;;;;;2.33;1.60;;;21.50;46.70;;;;;;5132976;27;20035;-33
2021/09/04 11:28:56;;;;;;;3.22;1.80;;;21.50;47.40;;;;;;5125081;27;20035;-34
2021/09/04 11:31:22;;;;;;;2.10;1.38;;;21.60;46.40;;;;;;5114733;28;20426;-34
2021/09/04 11:33:55;;;;;;;1.40;1.30;;;21.60;46.40;;;;;;5123676;27;20110;-34
2021/09/04 11:36:31;;;;;;;2.17;1.58;;;21.70;45.70;;;;;;5120484;27;20441;-35
2021/09/04 11:38:58;;;;;;;2.30;1.55;;;21.80;45.80;;;;;;5126769;27;20368;-34
2021/09/04 11:41:24;;;;;;;4.70;2.75;;;21.90;44.80;;;;;;5125923;27;20084;-34
2021/09/04 11:43:50;;;;;;;3.88;2.55;;;21.90;43.80;;;;;;5122789;27;20028;-34
2021/09/04 11:46:22;;;;;;;8.48;4.28;;;21.90;43.70;;;;;;5124140;27;20329;-34
2021/09/04 11:48:48;;;;;;;4.85;2.85;;;22.00;43.40;;;;;;5115794;28;20063;-36
2021/09/04 11:51:14;;;;;;;6.15;2.60;;;22.10;43.90;;;;;;5117967;28;20027;-35
2021/09/04 11:53:40;;;;;;;2.97;2.00;;;22.20;44.00;;;;;;5132935;28;20095;-34
2021/09/04 11:56:17;;;;;;;1.95;1.52;;;22.40;43.40;;;;;;5132470;28;20019;-34
2021/09/04 11:58:43;;;;;;;1.60;1.30;;;22.60;42.80;;;;;;5129535;28;20065;-35
2021/09/04 12:01:09;;;;;;;3.22;1.70;;;22.70;42.60;;;;;;5126813;28;20408;-36
2021/09/04 12:03:38;;;;;;;4.07;1.65;;;22.80;42.90;;;;;;5134110;28;20031;-34
2021/09/04 12:06:10;;;;;;;3.67;2.15;;;22.80;42.90;;;;;;5124038;28;20434;-35
2021/09/04 12:08:37;;;;;;;4.63;2.85;;;22.90;43.00;;;;;;5114376;28;20327;-35
2021/09/04 12:11:07;;;;;;;4.22;2.85;;;23.10;42.40;;;;;;5125432;28;20076;-35
2021/09/04 12:13:33;;;;;;;1.75;1.60;;;23.30;41.70;;;;;;5114886;28;20024;-35
2021/09/04 12:16:01;;;;;;;4.22;1.75;;;23.50;41.00;;;;;;5114493;28;20031;-34
2021/09/04 12:18:34;;;;;;;2.53;2.05;;;23.60;40.60;;;;;;5114514;28;20111;-35
2021/09/04 12:21:25;;;;;;;4.63;2.45;;;23.60;39.90;;;;;;5115640;28;20043;-34
2021/09/04 12:23:55;;;;;;;4.88;1.60;;;23.70;39.30;;;;;;5115349;28;20037;-35
2021/09/04 12:26:21;;;;;;;3.10;1.70;;;23.70;38.70;;;;;;5114987;28;20024;-35
2021/09/04 12:28:47;;;;;;;2.30;1.52;;;23.70;38.70;;;;;;5114560;28;20478;-34
2021/09/04 12:31:17;;;;;;;3.35;1.58;;;23.60;38.50;;;;;;5115245;28;20097;-34
2021/09/04 12:33:52;;;;;;;1.85;1.48;;;23.50;38.50;;;;;;5115971;28;20031;-34
2021/09/04 12:36:27;;;;;;;3.30;1.60;;;23.40;39.00;;;;;;5115185;28;20024;-34
2021/09/04 12:38:58;;;;;;;8.15;2.03;;;23.30;38.70;;;;;;5115785;28;20468;-35
2021/09/04 12:41:31;;;;;;;1.65;1.35;;;23.20;38.70;;;;;;5119919;28;20063;-35
2021/09/04 12:44:05;;;;;;;2.85;1.75;;;23.10;38.30;;;;;;5121734;28;20111;-37
2021/09/04 12:46:51;;;;;;;2.30;1.70;;;22.90;39.00;;;;;;5125117;28;20024;-36